sensor_id;sensor_type;location;lat;lon;timestamp;P1;durP1;ratioP1;P2;durP2;ratioP2
72895;SDS011;61036;53.224;6.554;2024-01-10T00:01:55;24.10;;;16.17;;
72895;SDS011;61036;53.224;6.554;2024-01-10T00:04:20;23.50;;;16.27;;
72895;SDS011;61036;53.224;6.554;2024-01-10T00:06:46;23.97;;;17.10;;
72895;SDS011;61036;53.224;6.554;2024-01-10T00:09:11;23.07;;;16.87;;
72895;SDS011;61036;53.224;6.554;2024-01-10T00:11:37;23.37;;;16.60;;
72895;SDS011;61036;53.224;6.554;2024-01-10T00:14:03;26.57;;;18.60;;
72895;SDS011;61036;53.224;6.554;2024-01-10T00:16:29;25.35;;;17.70;;
72895;SDS011;61036;53.224;6.554;2024-01-10T00:18:54;26.97;;;19.13;;
72895;SDS011;61036;53.224;6.554;2024-01-10T00:21:20;26.67;;;19.57;;
72895;SDS011;61036;53.224;6.554;2024-01-10T00:23:45;29.60;;;18.60;;
72895;SDS011;61036;53.224;6.554;2024-01-10T00:26:11;27.00;;;18.63;;
72895;SDS011;61036;53.224;6.554;2024-01-10T00:28:36;26.67;;;16.87;;
72895;SDS011;61036;53.224;6.554;2024-01-10T00:31:02;25.40;;;17.33;;
72895;SDS011;61036;53.224;6.554;2024-01-10T00:33:28;26.17;;;18.17;;
72895;SDS011;61036;53.224;6.554;2024-01-10T00:35:53;24.23;;;16.87;;
72895;SDS011;61036;53.224;6.554;2024-01-10T00:38:19;24.50;;;18.07;;
72895;SDS011;61036;53.224;6.554;2024-01-10T00:40:44;24.47;;;17.57;;
72895;SDS011;61036;53.224;6.554;2024-01-10T00:43:10;26.47;;;17.70;;
72895;SDS011;61036;53.224;6.554;2024-01-10T00:45:35;23.43;;;16.47;;
72895;SDS011;61036;53.224;6.554;2024-01-10T00:48:01;22.70;;;15.77;;
72895;SDS011;61036;53.224;6.554;2024-01-10T00:50:26;22.80;;;15.07;;
72895;SDS011;61036;53.224;6.554;2024-01-10T00:52:52;23.90;;;16.10;;
72895;SDS011;61036;53.224;6.554;2024-01-10T00:55:17;23.57;;;16.03;;
72895;SDS011;61036;53.224;6.554;2024-01-10T00:57:43;22.43;;;15.50;;
72895;SDS011;61036;53.224;6.554;2024-01-10T01:00:08;21.50;;;14.57;;
72895;SDS011;61036;53.224;6.554;2024-01-10T01:02:36;20.52;;;14.68;;
72895;SDS011;61036;53.224;6.554;2024-01-10T01:05:02;21.52;;;14.60;;
72895;SDS011;61036;53.224;6.554;2024-01-10T01:07:28;23.77;;;15.37;;
72895;SDS011;61036;53.224;6.554;2024-01-10T01:09:53;20.17;;;13.20;;
72895;SDS011;61036;53.224;6.554;2024-01-10T01:12:19;18.80;;;13.97;;
72895;SDS011;61036;53.224;6.554;2024-01-10T01:14:44;20.73;;;14.50;;
72895;SDS011;61036;53.224;6.554;2024-01-10T01:17:10;21.80;;;14.63;;
72895;SDS011;61036;53.224;6.554;2024-01-10T01:19:35;19.93;;;13.73;;
72895;SDS011;61036;53.224;6.554;2024-01-10T01:22:01;18.53;;;13.80;;
72895;SDS011;61036;53.224;6.554;2024-01-10T01:24:26;20.33;;;13.90;;
72895;SDS011;61036;53.224;6.554;2024-01-10T01:26:52;20.07;;;14.67;;
72895;SDS011;61036;53.224;6.554;2024-01-10T01:29:17;21.37;;;14.93;;
72895;SDS011;61036;53.224;6.554;2024-01-10T01:31:43;23.80;;;15.47;;
72895;SDS011;61036;53.224;6.554;2024-01-10T01:34:08;25.30;;;16.57;;
72895;SDS011;61036;53.224;6.554;2024-01-10T01:36:34;23.80;;;15.57;;
72895;SDS011;61036;53.224;6.554;2024-01-10T01:38:59;24.43;;;16.97;;
72895;SDS011;61036;53.224;6.554;2024-01-10T01:41:25;24.57;;;17.97;;
72895;SDS011;61036;53.224;6.554;2024-01-10T01:43:50;28.63;;;19.63;;
72895;SDS011;61036;53.224;6.554;2024-01-10T01:46:16;27.27;;;18.90;;
72895;SDS011;61036;53.224;6.554;2024-01-10T01:48:41;29.83;;;20.93;;
72895;SDS011;61036;53.224;6.554;2024-01-10T01:51:07;34.47;;;23.03;;
72895;SDS011;61036;53.224;6.554;2024-01-10T01:53:34;33.75;;;22.77;;
72895;SDS011;61036;53.224;6.554;2024-01-10T01:56:02;30.38;;;21.60;;
72895;SDS011;61036;53.224;6.554;2024-01-10T01:58:30;34.65;;;24.15;;
72895;SDS011;61036;53.224;6.554;2024-01-10T02:00:56;32.03;;;22.80;;
72895;SDS011;61036;53.224;6.554;2024-01-10T02:03:22;33.23;;;23.67;;
72895;SDS011;61036;53.224;6.554;2024-01-10T02:05:48;33.83;;;23.38;;
72895;SDS011;61036;53.224;6.554;2024-01-10T02:08:15;34.90;;;23.40;;
72895;SDS011;61036;53.224;6.554;2024-01-10T02:10:41;30.73;;;21.83;;
72895;SDS011;61036;53.224;6.554;2024-01-10T02:13:06;32.13;;;22.77;;
72895;SDS011;61036;53.224;6.554;2024-01-10T02:15:34;34.22;;;22.83;;
72895;SDS011;61036;53.224;6.554;2024-01-10T02:18:01;34.28;;;22.58;;
72895;SDS011;61036;53.224;6.554;2024-01-10T02:20:26;32.60;;;22.30;;
72895;SDS011;61036;53.224;6.554;2024-01-10T02:22:52;32.10;;;21.53;;
72895;SDS011;61036;53.224;6.554;2024-01-10T02:25:17;29.80;;;21.60;;
72895;SDS011;61036;53.224;6.554;2024-01-10T02:27:43;33.73;;;23.97;;
72895;SDS011;61036;53.224;6.554;2024-01-10T02:30:09;33.17;;;22.73;;
72895;SDS011;61036;53.224;6.554;2024-01-10T02:32:36;33.63;;;24.33;;
72895;SDS011;61036;53.224;6.554;2024-01-10T02:35:02;35.30;;;23.77;;
72895;SDS011;61036;53.224;6.554;2024-01-10T02:37:28;35.25;;;24.75;;
72895;SDS011;61036;53.224;6.554;2024-01-10T02:39:53;42.57;;;27.00;;
72895;SDS011;61036;53.224;6.554;2024-01-10T02:42:19;36.30;;;24.70;;
72895;SDS011;61036;53.224;6.554;2024-01-10T02:44:44;35.87;;;23.80;;
72895;SDS011;61036;53.224;6.554;2024-01-10T02:47:10;38.83;;;25.07;;
72895;SDS011;61036;53.224;6.554;2024-01-10T02:49:37;36.85;;;25.48;;
72895;SDS011;61036;53.224;6.554;2024-01-10T02:52:03;39.43;;;25.67;;
72895;SDS011;61036;53.224;6.554;2024-01-10T02:54:28;37.33;;;24.40;;
72895;SDS011;61036;53.224;6.554;2024-01-10T02:56:54;34.43;;;23.40;;
72895;SDS011;61036;53.224;6.554;2024-01-10T02:59:19;35.57;;;24.47;;
72895;SDS011;61036;53.224;6.554;2024-01-10T03:01:45;35.57;;;24.57;;
72895;SDS011;61036;53.224;6.554;2024-01-10T03:04:10;38.37;;;25.53;;
72895;SDS011;61036;53.224;6.554;2024-01-10T03:06:36;36.63;;;23.13;;
72895;SDS011;61036;53.224;6.554;2024-01-10T03:09:02;36.63;;;25.20;;
72895;SDS011;61036;53.224;6.554;2024-01-10T03:11:28;34.92;;;23.52;;
72895;SDS011;61036;53.224;6.554;2024-01-10T03:14:15;36.57;;;24.83;;
72895;SDS011;61036;53.224;6.554;2024-01-10T03:16:39;36.80;;;24.30;;
72895;SDS011;61036;53.224;6.554;2024-01-10T03:19:05;37.70;;;26.10;;
72895;SDS011;61036;53.224;6.554;2024-01-10T03:21:30;34.60;;;23.40;;
72895;SDS011;61036;53.224;6.554;2024-01-10T03:23:56;32.60;;;23.57;;
72895;SDS011;61036;53.224;6.554;2024-01-10T03:26:22;36.22;;;23.73;;
72895;SDS011;61036;53.224;6.554;2024-01-10T03:28:48;34.42;;;22.88;;
72895;SDS011;61036;53.224;6.554;2024-01-10T03:31:14;32.80;;;24.27;;
72895;SDS011;61036;53.224;6.554;2024-01-10T03:33:41;33.38;;;23.90;;
72895;SDS011;61036;53.224;6.554;2024-01-10T03:36:09;33.67;;;22.83;;
72895;SDS011;61036;53.224;6.554;2024-01-10T03:38:37;35.00;;;24.27;;
72895;SDS011;61036;53.224;6.554;2024-01-10T03:41:02;33.90;;;22.43;;
72895;SDS011;61036;53.224;6.554;2024-01-10T03:43:28;27.87;;;20.07;;
72895;SDS011;61036;53.224;6.554;2024-01-10T03:45:53;33.70;;;22.83;;
72895;SDS011;61036;53.224;6.554;2024-01-10T03:48:19;30.57;;;21.63;;
72895;SDS011;61036;53.224;6.554;2024-01-10T03:50:44;29.53;;;21.23;;
72895;SDS011;61036;53.224;6.554;2024-01-10T03:53:10;28.73;;;20.10;;
72895;SDS011;61036;53.224;6.554;2024-01-10T03:55:35;30.33;;;20.87;;
72895;SDS011;61036;53.224;6.554;2024-01-10T03:58:01;32.60;;;22.10;;
72895;SDS011;61036;53.224;6.554;2024-01-10T04:00:26;34.33;;;22.77;;
72895;SDS011;61036;53.224;6.554;2024-01-10T04:02:52;32.17;;;21.67;;
72895;SDS011;61036;53.224;6.554;2024-01-10T04:05:18;32.17;;;21.57;;
72895;SDS011;61036;53.224;6.554;2024-01-10T04:07:45;32.25;;;21.98;;
72895;SDS011;61036;53.224;6.554;2024-01-10T04:10:12;31.13;;;21.70;;
72895;SDS011;61036;53.224;6.554;2024-01-10T04:12:39;35.53;;;23.55;;
72895;SDS011;61036;53.224;6.554;2024-01-10T04:15:05;34.10;;;23.20;;
72895;SDS011;61036;53.224;6.554;2024-01-10T04:17:32;33.50;;;23.42;;
72895;SDS011;61036;53.224;6.554;2024-01-10T04:19:57;34.10;;;24.33;;
72895;SDS011;61036;53.224;6.554;2024-01-10T04:22:23;30.93;;;22.23;;
72895;SDS011;61036;53.224;6.554;2024-01-10T04:24:49;31.63;;;23.47;;
72895;SDS011;61036;53.224;6.554;2024-01-10T04:27:15;33.67;;;23.20;;
72895;SDS011;61036;53.224;6.554;2024-01-10T04:29:40;32.17;;;21.97;;
72895;SDS011;61036;53.224;6.554;2024-01-10T04:32:06;34.63;;;23.57;;
72895;SDS011;61036;53.224;6.554;2024-01-10T04:34:32;34.03;;;23.03;;
72895;SDS011;61036;53.224;6.554;2024-01-10T04:36:57;35.03;;;23.87;;
72895;SDS011;61036;53.224;6.554;2024-01-10T04:39:23;32.53;;;23.50;;
72895;SDS011;61036;53.224;6.554;2024-01-10T04:41:48;33.80;;;22.60;;
72895;SDS011;61036;53.224;6.554;2024-01-10T04:44:14;31.20;;;21.83;;
72895;SDS011;61036;53.224;6.554;2024-01-10T04:46:39;31.90;;;22.47;;
72895;SDS011;61036;53.224;6.554;2024-01-10T04:49:06;32.78;;;22.90;;
72895;SDS011;61036;53.224;6.554;2024-01-10T04:51:32;30.38;;;21.15;;
72895;SDS011;61036;53.224;6.554;2024-01-10T04:53:57;35.20;;;23.60;;
72895;SDS011;61036;53.224;6.554;2024-01-10T04:56:23;37.10;;;24.57;;
72895;SDS011;61036;53.224;6.554;2024-01-10T04:58:49;32.37;;;23.60;;
72895;SDS011;61036;53.224;6.554;2024-01-10T05:01:14;33.87;;;23.47;;
72895;SDS011;61036;53.224;6.554;2024-01-10T05:03:40;34.57;;;23.50;;
72895;SDS011;61036;53.224;6.554;2024-01-10T05:06:05;34.50;;;23.27;;
72895;SDS011;61036;53.224;6.554;2024-01-10T05:08:31;31.00;;;23.10;;
72895;SDS011;61036;53.224;6.554;2024-01-10T05:10:57;30.27;;;22.30;;
72895;SDS011;61036;53.224;6.554;2024-01-10T05:13:22;31.20;;;22.60;;
72895;SDS011;61036;53.224;6.554;2024-01-10T05:15:47;30.20;;;21.40;;
72895;SDS011;61036;53.224;6.554;2024-01-10T05:18:14;30.43;;;22.67;;
72895;SDS011;61036;53.224;6.554;2024-01-10T05:20:40;29.02;;;19.92;;
72895;SDS011;61036;53.224;6.554;2024-01-10T05:23:06;31.13;;;21.37;;
72895;SDS011;61036;53.224;6.554;2024-01-10T05:25:31;28.33;;;20.57;;
72895;SDS011;61036;53.224;6.554;2024-01-10T05:27:57;33.80;;;22.20;;
72895;SDS011;61036;53.224;6.554;2024-01-10T05:30:23;29.48;;;21.17;;
72895;SDS011;61036;53.224;6.554;2024-01-10T05:32:49;29.40;;;20.33;;
72895;SDS011;61036;53.224;6.554;2024-01-10T05:35:15;29.10;;;20.70;;
72895;SDS011;61036;53.224;6.554;2024-01-10T05:37:41;29.20;;;20.35;;
72895;SDS011;61036;53.224;6.554;2024-01-10T05:40:06;28.03;;;21.13;;
72895;SDS011;61036;53.224;6.554;2024-01-10T05:42:32;27.90;;;19.85;;
72895;SDS011;61036;53.224;6.554;2024-01-10T05:44:58;31.30;;;21.50;;
72895;SDS011;61036;53.224;6.554;2024-01-10T05:47:25;29.52;;;21.70;;
72895;SDS011;61036;53.224;6.554;2024-01-10T05:49:51;29.90;;;21.25;;
72895;SDS011;61036;53.224;6.554;2024-01-10T05:52:18;32.78;;;22.02;;
72895;SDS011;61036;53.224;6.554;2024-01-10T05:54:44;31.73;;;22.20;;
72895;SDS011;61036;53.224;6.554;2024-01-10T05:57:10;31.70;;;20.85;;
72895;SDS011;61036;53.224;6.554;2024-01-10T05:59:36;27.20;;;19.93;;
72895;SDS011;61036;53.224;6.554;2024-01-10T06:02:02;30.50;;;20.30;;
72895;SDS011;61036;53.224;6.554;2024-01-10T06:04:28;30.25;;;20.70;;
72895;SDS011;61036;53.224;6.554;2024-01-10T06:06:57;29.08;;;20.42;;
72895;SDS011;61036;53.224;6.554;2024-01-10T06:09:24;30.55;;;21.52;;
72895;SDS011;61036;53.224;6.554;2024-01-10T06:11:49;32.57;;;21.63;;
72895;SDS011;61036;53.224;6.554;2024-01-10T06:14:15;32.53;;;22.33;;
72895;SDS011;61036;53.224;6.554;2024-01-10T06:16:41;34.78;;;22.23;;
72895;SDS011;61036;53.224;6.554;2024-01-10T06:19:07;32.23;;;22.50;;
72895;SDS011;61036;53.224;6.554;2024-01-10T06:21:32;33.10;;;21.90;;
72895;SDS011;61036;53.224;6.554;2024-01-10T06:23:59;32.10;;;22.42;;
72895;SDS011;61036;53.224;6.554;2024-01-10T06:26:24;31.40;;;21.27;;
72895;SDS011;61036;53.224;6.554;2024-01-10T06:28:50;34.80;;;25.23;;
72895;SDS011;61036;53.224;6.554;2024-01-10T06:31:15;35.37;;;24.57;;
72895;SDS011;61036;53.224;6.554;2024-01-10T06:33:41;31.63;;;23.93;;
72895;SDS011;61036;53.224;6.554;2024-01-10T06:36:06;34.63;;;24.40;;
72895;SDS011;61036;53.224;6.554;2024-01-10T06:38:32;32.80;;;23.60;;
72895;SDS011;61036;53.224;6.554;2024-01-10T06:40:58;36.37;;;25.20;;
72895;SDS011;61036;53.224;6.554;2024-01-10T06:43:24;36.03;;;24.90;;
72895;SDS011;61036;53.224;6.554;2024-01-10T06:45:49;36.03;;;25.73;;
72895;SDS011;61036;53.224;6.554;2024-01-10T06:48:15;36.60;;;24.33;;
72895;SDS011;61036;53.224;6.554;2024-01-10T06:50:40;34.67;;;24.47;;
72895;SDS011;61036;53.224;6.554;2024-01-10T06:53:06;33.43;;;24.47;;
72895;SDS011;61036;53.224;6.554;2024-01-10T06:55:32;34.75;;;25.35;;
72895;SDS011;61036;53.224;6.554;2024-01-10T06:57:58;35.60;;;25.17;;
72895;SDS011;61036;53.224;6.554;2024-01-10T07:00:24;38.83;;;26.00;;
72895;SDS011;61036;53.224;6.554;2024-01-10T07:02:49;36.20;;;25.77;;
72895;SDS011;61036;53.224;6.554;2024-01-10T07:05:15;38.23;;;25.90;;
72895;SDS011;61036;53.224;6.554;2024-01-10T07:07:41;39.00;;;26.73;;
72895;SDS011;61036;53.224;6.554;2024-01-10T07:10:07;34.15;;;24.42;;
72895;SDS011;61036;53.224;6.554;2024-01-10T07:12:33;34.65;;;23.77;;
72895;SDS011;61036;53.224;6.554;2024-01-10T07:14:59;31.63;;;21.90;;
72895;SDS011;61036;53.224;6.554;2024-01-10T07:17:25;33.13;;;22.90;;
72895;SDS011;61036;53.224;6.554;2024-01-10T07:19:51;33.20;;;23.27;;
72895;SDS011;61036;53.224;6.554;2024-01-10T07:22:16;35.17;;;22.73;;
72895;SDS011;61036;53.224;6.554;2024-01-10T07:24:45;30.95;;;22.20;;
72895;SDS011;61036;53.224;6.554;2024-01-10T07:27:11;34.72;;;22.23;;
72895;SDS011;61036;53.224;6.554;2024-01-10T07:29:40;32.40;;;23.58;;
72895;SDS011;61036;53.224;6.554;2024-01-10T07:32:06;31.73;;;23.55;;
72895;SDS011;61036;53.224;6.554;2024-01-10T07:34:39;36.53;;;22.08;;
72895;SDS011;61036;53.224;6.554;2024-01-10T07:37:04;34.45;;;23.42;;
72895;SDS011;61036;53.224;6.554;2024-01-10T07:39:31;35.80;;;23.00;;
72895;SDS011;61036;53.224;6.554;2024-01-10T07:41:56;31.13;;;21.27;;
72895;SDS011;61036;53.224;6.554;2024-01-10T07:44:23;32.43;;;22.10;;
72895;SDS011;61036;53.224;6.554;2024-01-10T07:46:49;30.85;;;20.83;;
72895;SDS011;61036;53.224;6.554;2024-01-10T07:49:19;31.80;;;21.63;;
72895;SDS011;61036;53.224;6.554;2024-01-10T07:51:46;28.92;;;19.67;;
72895;SDS011;61036;53.224;6.554;2024-01-10T07:54:12;29.93;;;19.90;;
72895;SDS011;61036;53.224;6.554;2024-01-10T07:56:38;31.77;;;21.17;;
72895;SDS011;61036;53.224;6.554;2024-01-10T07:59:05;31.73;;;20.00;;
72895;SDS011;61036;53.224;6.554;2024-01-10T08:01:33;27.38;;;18.70;;
72895;SDS011;61036;53.224;6.554;2024-01-10T08:03:59;29.07;;;19.37;;
72895;SDS011;61036;53.224;6.554;2024-01-10T08:06:24;32.97;;;21.37;;
72895;SDS011;61036;53.224;6.554;2024-01-10T08:08:50;31.53;;;21.40;;
72895;SDS011;61036;53.224;6.554;2024-01-10T08:11:16;31.57;;;20.47;;
72895;SDS011;61036;53.224;6.554;2024-01-10T08:13:41;35.00;;;22.77;;
72895;SDS011;61036;53.224;6.554;2024-01-10T08:16:07;35.67;;;22.53;;
72895;SDS011;61036;53.224;6.554;2024-01-10T08:18:34;34.17;;;23.63;;
72895;SDS011;61036;53.224;6.554;2024-01-10T08:21:00;34.85;;;22.42;;
72895;SDS011;61036;53.224;6.554;2024-01-10T08:23:25;35.57;;;22.50;;
72895;SDS011;61036;53.224;6.554;2024-01-10T08:25:51;36.40;;;23.27;;
72895;SDS011;61036;53.224;6.554;2024-01-10T08:28:16;43.23;;;25.83;;
72895;SDS011;61036;53.224;6.554;2024-01-10T08:30:42;35.67;;;22.33;;
72895;SDS011;61036;53.224;6.554;2024-01-10T08:33:07;36.40;;;23.43;;
72895;SDS011;61036;53.224;6.554;2024-01-10T08:35:33;36.47;;;22.50;;
72895;SDS011;61036;53.224;6.554;2024-01-10T08:37:59;38.70;;;23.43;;
72895;SDS011;61036;53.224;6.554;2024-01-10T08:40:24;37.27;;;22.30;;
72895;SDS011;61036;53.224;6.554;2024-01-10T08:42:53;36.50;;;22.67;;
72895;SDS011;61036;53.224;6.554;2024-01-10T08:45:19;39.83;;;22.10;;
72895;SDS011;61036;53.224;6.554;2024-01-10T08:47:45;36.40;;;20.40;;
72895;SDS011;61036;53.224;6.554;2024-01-10T08:50:10;35.80;;;20.60;;
72895;SDS011;61036;53.224;6.554;2024-01-10T08:52:36;36.37;;;20.93;;
72895;SDS011;61036;53.224;6.554;2024-01-10T08:55:05;36.88;;;20.05;;
72895;SDS011;61036;53.224;6.554;2024-01-10T08:57:31;37.67;;;21.50;;
72895;SDS011;61036;53.224;6.554;2024-01-10T08:59:57;37.47;;;19.60;;
72895;SDS011;61036;53.224;6.554;2024-01-10T09:02:23;34.93;;;19.10;;
72895;SDS011;61036;53.224;6.554;2024-01-10T09:04:49;32.90;;;17.97;;
72895;SDS011;61036;53.224;6.554;2024-01-10T09:07:15;32.42;;;18.02;;
72895;SDS011;61036;53.224;6.554;2024-01-10T09:09:43;33.42;;;18.10;;
72895;SDS011;61036;53.224;6.554;2024-01-10T09:12:08;31.77;;;17.73;;
72895;SDS011;61036;53.224;6.554;2024-01-10T09:14:34;31.53;;;16.53;;
72895;SDS011;61036;53.224;6.554;2024-01-10T09:17:00;34.40;;;18.00;;
72895;SDS011;61036;53.224;6.554;2024-01-10T09:19:28;32.03;;;17.38;;
72895;SDS011;61036;53.224;6.554;2024-01-10T09:21:55;31.35;;;16.40;;
72895;SDS011;61036;53.224;6.554;2024-01-10T09:24:22;32.33;;;16.63;;
72895;SDS011;61036;53.224;6.554;2024-01-10T09:26:51;30.95;;;16.67;;
72895;SDS011;61036;53.224;6.554;2024-01-10T09:29:16;30.57;;;16.67;;
72895;SDS011;61036;53.224;6.554;2024-01-10T09:31:42;30.40;;;15.83;;
72895;SDS011;61036;53.224;6.554;2024-01-10T09:34:09;30.35;;;16.40;;
72895;SDS011;61036;53.224;6.554;2024-01-10T09:36:34;28.37;;;15.67;;
72895;SDS011;61036;53.224;6.554;2024-01-10T09:39:00;28.63;;;15.83;;
72895;SDS011;61036;53.224;6.554;2024-01-10T09:41:27;29.70;;;16.38;;
72895;SDS011;61036;53.224;6.554;2024-01-10T09:43:55;30.50;;;15.75;;
72895;SDS011;61036;53.224;6.554;2024-01-10T09:46:21;28.40;;;14.97;;
72895;SDS011;61036;53.224;6.554;2024-01-10T09:48:46;31.93;;;15.63;;
72895;SDS011;61036;53.224;6.554;2024-01-10T09:51:12;28.57;;;14.77;;
72895;SDS011;61036;53.224;6.554;2024-01-10T09:53:38;27.03;;;14.20;;
72895;SDS011;61036;53.224;6.554;2024-01-10T09:56:09;26.00;;;14.05;;
72895;SDS011;61036;53.224;6.554;2024-01-10T09:58:35;26.60;;;14.88;;
72895;SDS011;61036;53.224;6.554;2024-01-10T10:01:05;25.27;;;13.63;;
72895;SDS011;61036;53.224;6.554;2024-01-10T10:03:32;26.40;;;13.90;;
72895;SDS011;61036;53.224;6.554;2024-01-10T10:06:02;23.20;;;13.67;;
72895;SDS011;61036;53.224;6.554;2024-01-10T10:08:28;23.17;;;12.33;;
72895;SDS011;61036;53.224;6.554;2024-01-10T10:10:54;23.07;;;12.20;;
72895;SDS011;61036;53.224;6.554;2024-01-10T10:13:27;22.17;;;12.47;;
72895;SDS011;61036;53.224;6.554;2024-01-10T10:16:03;18.70;;;11.17;;
72895;SDS011;61036;53.224;6.554;2024-01-10T10:18:30;22.53;;;11.40;;
72895;SDS011;61036;53.224;6.554;2024-01-10T10:23:39;18.70;;;10.17;;
72895;SDS011;61036;53.224;6.554;2024-01-10T10:26:12;22.67;;;11.10;;
72895;SDS011;61036;53.224;6.554;2024-01-10T10:28:46;17.33;;;10.10;;
72895;SDS011;61036;53.224;6.554;2024-01-10T10:31:12;18.73;;;10.03;;
72895;SDS011;61036;53.224;6.554;2024-01-10T10:33:38;18.97;;;10.80;;
72895;SDS011;61036;53.224;6.554;2024-01-10T10:36:04;17.37;;;9.43;;
72895;SDS011;61036;53.224;6.554;2024-01-10T10:38:31;18.80;;;10.30;;
72895;SDS011;61036;53.224;6.554;2024-01-10T10:40:57;20.07;;;9.37;;
72895;SDS011;61036;53.224;6.554;2024-01-10T10:43:24;16.30;;;9.63;;
72895;SDS011;61036;53.224;6.554;2024-01-10T10:45:50;18.58;;;9.00;;
72895;SDS011;61036;53.224;6.554;2024-01-10T10:48:20;21.38;;;9.57;;
72895;SDS011;61036;53.224;6.554;2024-01-10T10:50:50;16.13;;;9.05;;
72895;SDS011;61036;53.224;6.554;2024-01-10T10:53:18;16.48;;;8.48;;
72895;SDS011;61036;53.224;6.554;2024-01-10T10:55:45;15.48;;;8.38;;
72895;SDS011;61036;53.224;6.554;2024-01-10T10:58:12;15.18;;;8.35;;
72895;SDS011;61036;53.224;6.554;2024-01-10T11:00:39;15.20;;;8.30;;
72895;SDS011;61036;53.224;6.554;2024-01-10T11:03:07;14.70;;;8.30;;
72895;SDS011;61036;53.224;6.554;2024-01-10T11:05:35;15.02;;;8.25;;
72895;SDS011;61036;53.224;6.554;2024-01-10T11:08:06;18.67;;;9.25;;
72895;SDS011;61036;53.224;6.554;2024-01-10T11:10:35;16.60;;;8.83;;
72895;SDS011;61036;53.224;6.554;2024-01-10T11:18:55;14.85;;;7.65;;
72895;SDS011;61036;53.224;6.554;2024-01-10T11:24:34;19.27;;;8.18;;
72895;SDS011;61036;53.224;6.554;2024-01-10T11:27:07;16.58;;;7.50;;
72895;SDS011;61036;53.224;6.554;2024-01-10T11:29:37;16.90;;;9.10;;
72895;SDS011;61036;53.224;6.554;2024-01-10T11:32:04;15.70;;;7.65;;
72895;SDS011;61036;53.224;6.554;2024-01-10T11:34:58;15.50;;;7.80;;
72895;SDS011;61036;53.224;6.554;2024-01-10T11:37:43;15.27;;;7.95;;
72895;SDS011;61036;53.224;6.554;2024-01-10T11:40:10;17.00;;;8.55;;
72895;SDS011;61036;53.224;6.554;2024-01-10T11:42:43;13.88;;;7.65;;
72895;SDS011;61036;53.224;6.554;2024-01-10T11:48:00;16.92;;;8.07;;
72895;SDS011;61036;53.224;6.554;2024-01-10T11:50:26;16.07;;;8.53;;
72895;SDS011;61036;53.224;6.554;2024-01-10T11:52:53;15.57;;;8.48;;
72895;SDS011;61036;53.224;6.554;2024-01-10T11:58:18;14.80;;;7.73;;
72895;SDS011;61036;53.224;6.554;2024-01-10T12:00:44;14.73;;;8.60;;
72895;SDS011;61036;53.224;6.554;2024-01-10T12:03:11;16.00;;;8.57;;
72895;SDS011;61036;53.224;6.554;2024-01-10T12:05:37;17.13;;;8.73;;
72895;SDS011;61036;53.224;6.554;2024-01-10T12:08:07;17.00;;;9.40;;
72895;SDS011;61036;53.224;6.554;2024-01-10T12:10:44;16.60;;;8.20;;
72895;SDS011;61036;53.224;6.554;2024-01-10T12:13:10;14.60;;;8.13;;
72895;SDS011;61036;53.224;6.554;2024-01-10T12:15:36;20.17;;;9.47;;
72895;SDS011;61036;53.224;6.554;2024-01-10T12:18:01;14.97;;;8.13;;
72895;SDS011;61036;53.224;6.554;2024-01-10T12:20:27;16.67;;;8.17;;
72895;SDS011;61036;53.224;6.554;2024-01-10T12:22:53;17.07;;;9.17;;
72895;SDS011;61036;53.224;6.554;2024-01-10T12:25:19;21.50;;;9.50;;
72895;SDS011;61036;53.224;6.554;2024-01-10T12:27:45;15.87;;;8.67;;
72895;SDS011;61036;53.224;6.554;2024-01-10T12:30:10;17.40;;;9.13;;
72895;SDS011;61036;53.224;6.554;2024-01-10T12:32:36;15.90;;;8.73;;
72895;SDS011;61036;53.224;6.554;2024-01-10T12:35:02;13.90;;;8.10;;
72895;SDS011;61036;53.224;6.554;2024-01-10T12:37:28;16.30;;;8.00;;
72895;SDS011;61036;53.224;6.554;2024-01-10T12:39:54;15.20;;;7.97;;
72895;SDS011;61036;53.224;6.554;2024-01-10T12:42:21;17.47;;;8.83;;
72895;SDS011;61036;53.224;6.554;2024-01-10T12:44:47;15.47;;;9.03;;
72895;SDS011;61036;53.224;6.554;2024-01-10T12:47:19;17.90;;;9.23;;
72895;SDS011;61036;53.224;6.554;2024-01-10T12:49:46;15.77;;;9.23;;
72895;SDS011;61036;53.224;6.554;2024-01-10T12:52:12;17.03;;;9.07;;
72895;SDS011;61036;53.224;6.554;2024-01-10T12:54:39;15.83;;;8.37;;
72895;SDS011;61036;53.224;6.554;2024-01-10T12:57:05;18.80;;;9.53;;
72895;SDS011;61036;53.224;6.554;2024-01-10T12:59:32;15.77;;;9.05;;
72895;SDS011;61036;53.224;6.554;2024-01-10T13:02:00;16.67;;;9.40;;
72895;SDS011;61036;53.224;6.554;2024-01-10T13:04:26;18.83;;;9.40;;
72895;SDS011;61036;53.224;6.554;2024-01-10T13:06:52;16.10;;;8.90;;
72895;SDS011;61036;53.224;6.554;2024-01-10T13:09:18;17.97;;;9.07;;
72895;SDS011;61036;53.224;6.554;2024-01-10T13:11:43;18.83;;;8.93;;
72895;SDS011;61036;53.224;6.554;2024-01-10T13:14:10;17.23;;;9.30;;
72895;SDS011;61036;53.224;6.554;2024-01-10T13:16:37;19.13;;;9.10;;
72895;SDS011;61036;53.224;6.554;2024-01-10T13:19:03;16.53;;;9.07;;
72895;SDS011;61036;53.224;6.554;2024-01-10T13:21:29;15.83;;;8.63;;
72895;SDS011;61036;53.224;6.554;2024-01-10T13:23:54;17.13;;;9.33;;
72895;SDS011;61036;53.224;6.554;2024-01-10T13:26:20;17.43;;;9.00;;
72895;SDS011;61036;53.224;6.554;2024-01-10T13:28:46;15.87;;;8.87;;
72895;SDS011;61036;53.224;6.554;2024-01-10T13:31:11;17.50;;;9.00;;
72895;SDS011;61036;53.224;6.554;2024-01-10T13:33:37;16.60;;;8.23;;
72895;SDS011;61036;53.224;6.554;2024-01-10T13:36:03;17.13;;;9.57;;
72895;SDS011;61036;53.224;6.554;2024-01-10T13:38:30;15.93;;;8.67;;
72895;SDS011;61036;53.224;6.554;2024-01-10T13:40:56;15.53;;;8.70;;
72895;SDS011;61036;53.224;6.554;2024-01-10T13:43:21;15.67;;;8.10;;
72895;SDS011;61036;53.224;6.554;2024-01-10T13:45:47;15.37;;;8.50;;
72895;SDS011;61036;53.224;6.554;2024-01-10T13:48:13;15.93;;;8.57;;
72895;SDS011;61036;53.224;6.554;2024-01-10T13:50:39;16.07;;;8.63;;
72895;SDS011;61036;53.224;6.554;2024-01-10T13:53:04;18.10;;;9.77;;
72895;SDS011;61036;53.224;6.554;2024-01-10T13:55:30;18.47;;;9.63;;
72895;SDS011;61036;53.224;6.554;2024-01-10T13:57:56;21.67;;;10.63;;
72895;SDS011;61036;53.224;6.554;2024-01-10T14:00:22;18.67;;;11.00;;
72895;SDS011;61036;53.224;6.554;2024-01-10T14:02:48;25.13;;;12.03;;
72895;SDS011;61036;53.224;6.554;2024-01-10T14:05:14;21.13;;;11.40;;
72895;SDS011;61036;53.224;6.554;2024-01-10T14:07:40;19.77;;;10.97;;
72895;SDS011;61036;53.224;6.554;2024-01-10T14:10:09;22.10;;;10.97;;
72895;SDS011;61036;53.224;6.554;2024-01-10T14:12:36;19.70;;;10.80;;
72895;SDS011;61036;53.224;6.554;2024-01-10T14:15:02;18.03;;;10.00;;
72895;SDS011;61036;53.224;6.554;2024-01-10T14:17:29;18.70;;;11.07;;
72895;SDS011;61036;53.224;6.554;2024-01-10T14:19:54;20.50;;;10.73;;
72895;SDS011;61036;53.224;6.554;2024-01-10T14:22:20;18.43;;;10.77;;
72895;SDS011;61036;53.224;6.554;2024-01-10T14:24:45;19.20;;;10.70;;
72895;SDS011;61036;53.224;6.554;2024-01-10T14:27:11;20.47;;;10.47;;
72895;SDS011;61036;53.224;6.554;2024-01-10T14:29:37;21.27;;;10.93;;
72895;SDS011;61036;53.224;6.554;2024-01-10T14:32:02;18.90;;;10.33;;
72895;SDS011;61036;53.224;6.554;2024-01-10T14:34:29;18.00;;;9.90;;
72895;SDS011;61036;53.224;6.554;2024-01-10T14:36:54;16.83;;;9.70;;